»·PEaware :: N1719G KLAS-KSNA

N1719G :: KLAS-KSNA

FLIGHT INFORMATION

Flight Status: Arrived
Operator: Privately registered:
United States
More flights under this callsign
Pilot: Spencer M. (27733)
Aircraft: ECLIPSE 500
(EA50)
More flights by this aircraft type
Origin: KLAS McCarran Intl
United States
Destination: KSNA John Wayne-Orange Co
United States
More flights between these airports :: More routes between these airports
Route: +MCCRN HEC KAYOH7
File this flight plan on PilotEdge
Remarks:
Altitude:
(Current/Filed)
16,000ft
Speed:
(Current/Filed)
280kts
Departed: 11-Sep-20 01:53 PM
Arrived: 11-Sep-20 02:42 PM
Distance/Time
Traveled:
197nm/0:49
Distance/Time
To Go:
Arrived

Flight Plot

Page will automatically refresh every two minutes.

Flight plan parsing failed; only flown route is shown


Map Options




Map Legend


Flown Route
Filed Route
Departure Airport
Arrival Airport
Navaid (VOR, NDB)
Fix

Horizontal Profiles

Position Reports

Time Latitude Longitude Heading Altitude Ground
Speed
11-Sep-20 13:28 36.082947 -115.169990 89 2184ft 0kts
11-Sep-20 13:29 36.082947 -115.169990 89 2184ft 0kts
11-Sep-20 13:30 36.082947 -115.169990 89 2184ft 0kts
11-Sep-20 13:31 36.082947 -115.169990 89 2184ft 0kts
11-Sep-20 13:32 36.082947 -115.169990 89 2184ft 0kts
11-Sep-20 13:33 36.082947 -115.169990 89 2184ft 0kts
11-Sep-20 13:34 36.082947 -115.169990 89 2184ft 0kts
11-Sep-20 13:35 36.082947 -115.169990 89 2184ft 0kts
11-Sep-20 13:36 36.082947 -115.169990 89 2184ft 0kts
11-Sep-20 13:37 36.082947 -115.169990 89 2184ft 0kts
11-Sep-20 13:38 36.082947 -115.169990 89 2184ft 0kts
11-Sep-20 13:39 36.082947 -115.169990 89 2184ft 0kts
11-Sep-20 13:40 36.082947 -115.169990 89 2184ft 0kts
11-Sep-20 13:41 36.082947 -115.169990 89 2184ft 0kts
11-Sep-20 13:42 36.082947 -115.169990 89 2184ft 0kts
11-Sep-20 13:43 36.082947 -115.169990 89 2184ft 0kts
11-Sep-20 13:44 36.083083 -115.168984 39 2184ft 7kts
11-Sep-20 13:45 36.085802 -115.166824 45 2184ft 11kts
11-Sep-20 13:46 36.089242 -115.164798 24 2184ft 18kts
11-Sep-20 13:47 36.094895 -115.161563 25 2184ft 24kts
11-Sep-20 13:48 36.099378 -115.158977 40 2184ft 8kts
11-Sep-20 13:49 36.099841 -115.157464 93 2184ft 0kts
11-Sep-20 13:50 36.099841 -115.157464 93 2184ft 0kts
11-Sep-20 13:51 36.098494 -115.157123 206 2184ft 32kts
11-Sep-20 13:52 36.069846 -115.173407 205 2675ft 168kts
11-Sep-20 13:53 36.023412 -115.203533 223 4557ft 199kts
11-Sep-20 13:54 35.986929 -115.257752 231 6368ft 220kts
11-Sep-20 13:55 35.928906 -115.285247 204 7896ft 239kts
11-Sep-20 13:56 35.866832 -115.320732 204 9411ft 252kts
11-Sep-20 13:57 35.802341 -115.357762 204 10915ft 259kts
11-Sep-20 13:58 35.736975 -115.395347 204 12414ft 261kts
11-Sep-20 13:59 35.671598 -115.433065 204 13916ft 258kts
11-Sep-20 14:00 35.607319 -115.470188 204 15411ft 254kts
11-Sep-20 14:01 35.541526 -115.508023 204 16049ft 282kts
11-Sep-20 14:02 35.476374 -115.570409 224 16047ft 311kts
11-Sep-20 14:04 35.416009 -115.647370 227 16046ft 316kts
11-Sep-20 14:05 35.355946 -115.726777 227 16038ft 318kts
11-Sep-20 14:06 35.296035 -115.806348 227 16023ft 319kts
11-Sep-20 14:07 35.235598 -115.886528 227 16008ft 320kts
11-Sep-20 14:08 35.175098 -115.966619 227 16000ft 320kts
11-Sep-20 14:09 35.114646 -116.046461 227 16000ft 320kts
11-Sep-20 14:10 35.054131 -116.126201 227 16000ft 320kts
11-Sep-20 14:11 34.993540 -116.205836 227 16007ft 320kts
11-Sep-20 14:12 34.933095 -116.285109 227 16064ft 319kts
11-Sep-20 14:13 34.872560 -116.364316 227 16054ft 319kts
11-Sep-20 14:14 34.814242 -116.440456 227 16044ft 300kts
11-Sep-20 14:15 34.756329 -116.513024 226 16045ft 299kts
11-Sep-20 14:16 34.697609 -116.585285 226 16046ft 301kts
11-Sep-20 14:17 34.638710 -116.657667 225 16045ft 302kts
11-Sep-20 14:18 34.579387 -116.730368 225 16045ft 303kts
11-Sep-20 14:18 34.531024 -116.789523 225 15482ft 283kts
11-Sep-20 14:20 34.468834 -116.864582 224 14467ft 262kts
11-Sep-20 14:21 34.417539 -116.926913 224 13657ft 263kts
11-Sep-20 14:21 34.373760 -116.980289 224 12911ft 273kts
11-Sep-20 14:23 34.310346 -117.057647 224 11978ft 280kts
11-Sep-20 14:24 34.250804 -117.116517 187 11958ft 282kts
11-Sep-20 14:24 34.209769 -117.171138 251 11423ft 289kts
11-Sep-20 14:25 34.175131 -117.255800 239 10511ft 268kts
11-Sep-20 14:27 34.130603 -117.340100 237 9338ft 246kts
11-Sep-20 14:27 34.099297 -117.395984 235 8412ft 238kts
11-Sep-20 14:28 34.062457 -117.460637 237 7315ft 231kts
11-Sep-20 14:29 34.028152 -117.521487 237 6207ft 206kts
11-Sep-20 14:30 33.997102 -117.576666 237 5102ft 194kts
11-Sep-20 14:31 33.967307 -117.629651 237 4066ft 185kts
11-Sep-20 14:32 33.940521 -117.677300 236 4024ft 164kts
11-Sep-20 14:33 33.911239 -117.718020 209 3762ft 165kts
11-Sep-20 14:34 33.870951 -117.744555 208 2931ft 160kts
11-Sep-20 14:35 33.834219 -117.768092 208 2914ft 141kts
11-Sep-20 14:36 33.801919 -117.788687 209 2464ft 125kts
11-Sep-20 14:37 33.772518 -117.807411 209 1915ft 128kts
11-Sep-20 14:38 33.742963 -117.826490 208 1415ft 112kts
11-Sep-20 14:39 33.716472 -117.842856 206 859ft 102kts
11-Sep-20 14:40 33.691633 -117.858755 207 319ft 99kts
11-Sep-20 14:41 33.670986 -117.871773 204 59ft 28kts
11-Sep-20 14:42 33.669100 -117.871531 127 59ft 0kts
11-Sep-20 14:43 33.667759 -117.872157 167 59ft 3kts
11-Sep-20 14:44 33.667073 -117.872100 42 59ft 1kts
11-Sep-20 14:45 33.667114 -117.872063 34 59ft 0kts

Navigation Log

Ident Type
Flight plan parsing failed, navigation log unavailable